Time;durP1;ratioP1;P1;durP2;ratioP2;P2;SDS_P1;SDS_P2;PMS_P1;PMS_P2;Temp;Humidity;BMP_temperature;BMP_pressure;BME280_temperature;BME280_humidity;BME280_pressure;Samples;Min_cycle;Max_cycle;Signal;HPM_P1;HPM_P2
2023/05/10 00:07:17;;;;;;;6.38;2.17;;;;;;;23.63;30.68;101380.31;21008407;28;20541;-75
2023/05/10 00:17:21;;;;;;;5.13;2.42;;;;;;;23.73;30.88;101403.50;21006777;28;20044;-75
2023/05/10 00:27:25;;;;;;;4.25;1.52;;;;;;;23.66;31.67;101430.91;21001210;28;20044;-74
2023/05/10 00:37:27;;;;;;;3.45;1.70;;;;;;;23.54;31.93;101452.72;21000277;28;20044;-75
2023/05/10 00:47:29;;;;;;;4.63;2.10;;;;;;;23.65;30.95;101479.53;21003939;28;20044;-75
2023/05/10 00:57:30;;;;;;;3.10;1.75;;;;;;;23.61;31.17;101497.13;20955997;28;20036;-83
2023/05/10 01:07:32;;;;;;;5.82;1.83;;;;;;;22.88;30.68;101402.69;20985201;28;20398;-79
2023/05/10 01:17:35;;;;;;;4.32;1.90;;;;;;;23.67;31.13;101565.84;20937333;28;20041;-71
2023/05/10 01:27:51;;;;;;;3.08;1.83;;;;;;;23.66;30.98;101598.53;20935094;28;20488;-72
2023/05/10 01:38:28;;;;;;;4.45;1.95;;;;;;;23.61;31.31;101623.66;20972032;28;20035;-71
2023/05/10 01:48:31;;;;;;;6.07;2.25;;;;;;;23.61;31.17;101640.44;20921553;28;20071;-72
2023/05/10 01:58:36;;;;;;;9.25;2.40;;;;;;;23.26;31.82;101608.63;20933337;28;20052;-71
2023/05/10 02:08:39;;;;;;;5.03;1.55;;;;;;;23.41;33.09;101646.03;20973698;28;20445;-72
2023/05/10 02:18:44;;;;;;;4.05;1.70;;;;;;;23.66;33.41;101693.53;21001162;28;20044;-72
2023/05/10 02:28:47;;;;;;;6.10;1.67;;;;;;;23.67;32.50;101703.59;21021219;28;20109;-71
2023/05/10 02:38:51;;;;;;;2.33;1.60;;;;;;;23.63;32.99;101710.81;20982037;28;20118;-71
2023/05/10 02:48:53;;;;;;;5.40;1.67;;;;;;;22.91;33.36;101603.91;20972245;28;20032;-73
2023/05/10 02:58:55;;;;;;;2.92;1.55;;;;;;;23.60;32.47;101700.22;20913981;28;20045;-70
2023/05/10 03:08:57;;;;;;;5.05;1.90;;;;;;;23.59;31.71;101726.47;20962516;28;20094;-72
2023/05/10 03:19:13;;;;;;;2.85;1.08;;;;;;;23.51;32.92;101747.44;20946176;28;20057;-72
2023/05/10 03:29:15;;;;;;;3.13;1.20;;;;;;;23.53;32.63;101733.19;20995273;28;20036;-71
2023/05/10 03:39:22;;;;;;;3.17;1.60;;;;;;;23.52;32.98;101746.31;20992378;28;20565;-72
2023/05/10 03:49:24;;;;;;;3.03;1.30;;;;;;;23.55;32.70;101756.13;20992405;28;20476;-72
2023/05/10 03:59:25;;;;;;;3.95;1.15;;;;;;;23.37;32.28;101742.66;20981825;28;20491;-71
2023/05/10 04:09:26;;;;;;;3.28;1.20;;;;;;;23.20;32.80;101729.84;20992519;28;20491;-72
2023/05/10 04:19:31;;;;;;;2.03;1.33;;;;;;;23.37;32.97;101763.09;20993233;28;20360;-71
2023/05/10 04:29:32;;;;;;;1.40;1.13;;;;;;;23.45;33.44;101758.88;20990995;28;20425;-72
2023/05/10 04:39:36;;;;;;;3.85;1.40;;;;;;;23.46;32.40;101782.91;20956545;28;20048;-72
2023/05/10 04:49:41;;;;;;;3.00;1.50;;;;;;;23.43;31.44;101783.47;20994071;28;20087;-72
2023/05/10 04:59:42;;;;;;;1.60;1.40;;;;;;;23.42;31.32;101804.16;20921468;28;20040;-71
2023/05/10 05:09:44;;;;;;;3.00;1.52;;;;;;;23.36;31.43;101808.03;20921049;28;20095;-71
2023/05/10 05:19:45;;;;;;;6.47;1.38;;;;;;;23.20;31.23;101796.84;20985014;28;20044;-71
2023/05/10 05:29:46;;;;;;;4.53;1.50;;;;;;;22.52;31.46;101695.59;21012854;28;20036;-71
2023/05/10 05:39:48;;;;;;;3.35;1.60;;;;;;;23.27;31.37;101828.13;21019045;28;20037;-72
2023/05/10 05:49:50;;;;;;;2.67;1.60;;;;;;;23.08;31.62;101821.38;20966126;28;20040;-72
2023/05/10 05:59:51;;;;;;;2.53;1.65;;;;;;;23.13;32.18;101814.97;20942510;28;20116;-72
2023/05/10 06:09:53;;;;;;;3.15;1.30;;;;;;;23.16;31.30;101818.06;20943065;28;20182;-72
2023/05/10 06:19:57;;;;;;;3.47;1.40;;;;;;;23.16;32.23;101826.44;20945403;28;20132;-71
2023/05/10 06:29:58;;;;;;;3.63;1.50;;;;;;;23.18;32.63;101840.94;20947887;28;20119;-72
2023/05/10 06:40:02;;;;;;;1.90;1.50;;;;;;;23.13;31.63;101832.53;20945356;28;20514;-71
2023/05/10 06:50:04;;;;;;;3.38;1.85;;;;;;;23.08;31.65;101833.38;20944622;28;20163;-72
2023/05/10 07:00:17;;;;;;;3.22;1.75;;;;;;;23.08;31.16;101840.91;21002318;28;20040;-72
2023/05/10 07:10:24;;;;;;;1.80;1.50;;;;;;;23.15;33.67;101849.88;20995019;28;20098;-71
2023/05/10 07:20:25;;;;;;;2.92;1.70;;;;;;;23.20;33.57;101863.84;20993619;28;20045;-70
2023/05/10 07:30:28;;;;;;;8.40;1.95;;;;;;;23.19;32.97;101873.34;20993177;28;20479;-72
2023/05/10 07:40:30;;;;;;;2.80;1.25;;;;;;;23.19;33.46;101878.09;20994754;28;20488;-72
2023/05/10 07:50:31;;;;;;;3.75;1.58;;;;;;;23.23;33.58;101880.06;20992880;28;20102;-72
2023/05/10 08:00:35;;;;;;;2.15;1.50;;;;;;;23.19;33.83;101890.09;20922460;28;20090;-71
2023/05/10 08:10:36;;;;;;;4.03;1.98;;;;;;;23.16;33.14;101885.06;20966902;28;20067;-72
2023/05/10 08:20:40;;;;;;;2.38;1.60;;;;;;;23.08;34.39;101852.91;21007638;28;20082;-72
2023/05/10 08:30:41;;;;;;;2.75;1.65;;;;;;;23.25;33.47;101905.75;21007232;28;20036;-71
2023/05/10 08:40:44;;;;;;;3.38;1.90;;;;;;;23.19;33.42;101912.44;21006198;28;20032;-71
2023/05/10 08:50:50;;;;;;;4.07;1.80;;;;;;;22.57;33.78;101815.56;21005352;28;20488;-72
2023/05/10 09:00:52;;;;;;;3.08;1.88;;;;;;;23.03;32.77;101899.53;21004709;28;20040;-71
2023/05/10 09:10:55;;;;;;;2.88;1.70;;;;;;;23.11;33.54;101928.88;21003504;28;20399;-72
2023/05/10 09:21:01;;;;;;;4.07;1.77;;;;;;;23.05;34.97;101922.44;20985238;28;20045;-71
2023/05/10 09:31:06;;;;;;;4.00;1.48;;;;;;;23.24;34.43;101951.56;20965304;28;20122;-71
2023/05/10 09:41:18;;;;;;;2.10;1.40;;;;;;;23.23;34.54;101974.16;20954273;28;20943;-72
2023/05/10 09:51:24;;;;;;;1.92;1.30;;;;;;;23.21;34.60;101981.97;20940453;28;20380;-71
2023/05/10 10:01:26;;;;;;;3.60;1.60;;;;;;;23.20;34.95;102005.44;20968201;28;20041;-75
2023/05/10 10:11:41;;;;;;;3.30;1.63;;;;;;;23.14;34.63;102007.34;20936653;28;20404;-77
2023/05/10 10:21:45;;;;;;;5.03;1.42;;;;;;;23.02;34.15;102021.50;20989528;28;20475;-77
2023/05/10 10:32:08;;;;;;;3.95;1.70;;;;;;;22.89;35.01;102030.34;20982776;28;20040;-77
2023/05/10 10:42:09;;;;;;;7.72;1.85;;;;;;;22.84;34.68;102053.44;20964738;28;20420;-78
2023/05/10 10:52:28;;;;;;;7.30;1.73;;;;;;;22.59;35.25;102072.78;20966479;28;20040;-76
2023/05/10 11:02:56;;;;;;;11.87;2.23;;;;;;;22.60;35.69;102093.16;20971982;28;20086;-76
2023/05/10 11:13:13;;;;;;;12.18;2.65;;;;;;;22.62;35.83;102094.56;20993452;28;20327;-76
2023/05/10 11:23:43;;;;;;;10.07;2.42;;;;;;;22.50;35.97;102103.09;20936162;28;20032;-77
2023/05/10 11:33:58;;;;;;;7.50;2.63;;;;;;;22.23;35.78;102044.53;20961600;28;20036;-76
2023/05/10 11:44:00;;;;;;;9.48;2.33;;;;;;;22.71;35.44;102117.25;20962539;28;20033;-74
2023/05/10 11:54:07;;;;;;;6.28;2.67;;;;;;;22.10;35.95;102047.72;21006963;28;20104;-73
2023/05/10 12:04:08;;;;;;;6.88;2.50;;;;;;;22.60;35.08;102110.72;21042933;28;20102;-72
2023/05/10 12:14:10;;;;;;;5.00;2.05;;;;;;;22.60;35.77;102143.38;21055353;28;20069;-73
2023/05/10 12:24:12;;;;;;;11.23;2.83;;;;;;;22.64;34.57;102141.75;21101119;28;20417;-74
2023/05/10 12:34:26;;;;;;;7.28;2.20;;;;;;;22.55;34.89;102146.94;20992954;28;20484;-82
2023/05/10 12:44:27;;;;;;;4.47;2.42;;;;;;;22.49;34.75;102136.81;21018910;28;20043;-83
2023/05/10 12:54:28;;;;;;;7.93;2.67;;;;;;;22.64;34.19;102161.28;21020362;28;20047;-83
2023/05/10 13:04:30;;;;;;;8.77;2.20;;;;;;;22.52;35.44;102159.47;21007271;28;20040;-83
2023/05/10 13:14:31;;;;;;;9.00;2.22;;;;;;;22.28;35.38;102133.81;21006072;28;20495;-83
2023/05/10 13:24:33;;;;;;;9.18;2.45;;;;;;;22.27;35.27;102139.69;21003521;28;20357;-83
2023/05/10 13:34:35;;;;;;;4.80;1.92;;;;;;;22.57;35.11;102141.94;21002464;28;20143;-83
2023/05/10 13:44:38;;;;;;;9.10;2.45;;;;;;;22.60;33.86;102149.78;21002379;28;20059;-82
2023/05/10 13:54:42;;;;;;;4.05;1.80;;;;;;;22.60;34.31;102147.00;21001021;28;20114;-81
2023/05/10 14:04:44;;;;;;;3.50;2.08;;;;;;;22.51;33.85;102141.03;21000256;28;20376;-82
2023/05/10 14:14:45;;;;;;;5.07;2.15;;;;;;;21.88;34.02;102019.03;20998062;28;20384;-82
2023/05/10 14:24:47;;;;;;;7.65;2.25;;;;;;;22.37;33.68;102131.41;20998617;28;20040;-82
2023/05/10 14:34:48;;;;;;;5.32;1.52;;;;;;;22.56;32.90;102143.03;20998239;28;20045;-82
2023/05/10 14:44:49;;;;;;;4.03;1.35;;;;;;;22.53;33.79;102126.81;20997273;28;20041;-82
2023/05/10 14:54:50;;;;;;;2.90;1.38;;;;;;;22.44;33.29;102106.09;20996276;28;20041;-82
2023/05/10 15:04:52;;;;;;;3.30;1.70;;;;;;;22.49;32.95;102108.94;20995333;28;20037;-82
2023/05/10 15:14:53;;;;;;;4.15;1.55;;;;;;;22.67;32.55;102111.34;20994559;28;20047;-82
2023/05/10 15:24:55;;;;;;;3.88;1.70;;;;;;;22.81;32.13;102123.75;20988398;28;20048;-82
2023/05/10 15:34:56;;;;;;;5.00;1.83;;;;;;;22.74;32.19;102122.31;20994223;28;20032;-81
2023/05/10 15:45:01;;;;;;;1.85;1.67;;;;;;;22.80;32.26;102112.84;20987964;28;20040;-82
2023/05/10 15:55:02;;;;;;;3.42;1.90;;;;;;;22.15;32.37;101997.63;20992173;28;20410;-81
2023/05/10 16:05:04;;;;;;;4.57;2.00;;;;;;;22.85;32.12;102107.31;20993170;28;20369;-82
2023/05/10 16:15:06;;;;;;;4.00;1.92;;;;;;;22.82;31.69;102103.13;20992233;28;20048;-82
2023/05/10 16:25:08;;;;;;;4.80;1.92;;;;;;;22.71;31.76;102061.44;20991692;28;20036;-82
2023/05/10 16:35:10;;;;;;;4.05;1.67;;;;;;;22.64;31.74;102047.72;20996605;28;20037;-82
2023/05/10 16:45:11;;;;;;;3.75;1.85;;;;;;;22.79;31.60;102053.41;21006530;28;20040;-82
2023/05/10 16:55:13;;;;;;;3.22;1.88;;;;;;;22.98;32.17;102051.06;21005558;28;20066;-82
2023/05/10 17:05:14;;;;;;;3.63;1.90;;;;;;;23.03;32.01;102036.31;21006647;28;20067;-82
2023/05/10 17:15:17;;;;;;;8.82;1.90;;;;;;;23.12;31.55;102017.94;21011241;28;20109;-82
2023/05/10 17:25:22;;;;;;;3.50;2.30;;;;;;;22.98;31.46;101994.41;21003634;28;20110;-83
2023/05/10 17:35:23;;;;;;;4.15;2.20;;;;;;;22.95;30.33;102000.50;21002859;28;20098;-82
2023/05/10 17:45:25;;;;;;;2.88;2.20;;;;;;;23.05;31.37;101995.03;21001653;28;20040;-82
2023/05/10 17:55:28;;;;;;;3.42;2.40;;;;;;;23.03;30.95;101978.53;21001346;28;20122;-82
2023/05/10 18:05:30;;;;;;;3.85;2.10;;;;;;;22.76;30.86;101924.75;21000229;28;20044;-83
2023/05/10 18:15:36;;;;;;;5.25;2.25;;;;;;;23.14;31.28;101962.69;20999080;28;20045;-83
2023/05/10 18:25:40;;;;;;;4.75;2.50;;;;;;;23.21;31.30;101948.47;20998726;28;20035;-83
2023/05/10 18:35:41;;;;;;;3.63;2.58;;;;;;;23.17;31.36;101925.00;20997970;28;20074;-82
2023/05/10 18:45:43;;;;;;;4.50;2.50;;;;;;;23.20;30.67;101930.03;20996526;28;20106;-81
2023/05/10 18:55:44;;;;;;;3.53;2.67;;;;;;;23.27;31.21;101903.50;20995592;28;20078;-82
2023/05/10 19:05:47;;;;;;;5.20;2.83;;;;;;;23.24;30.61;101880.91;20995291;28;20110;-83
2023/05/10 19:16:09;;;;;;;5.57;2.95;;;;;;;23.13;30.94;101849.31;20995596;28;20052;-82
2023/05/10 19:26:11;;;;;;;3.92;2.50;;;;;;;23.34;30.94;101869.75;21004882;28;20037;-83
2023/05/10 19:36:15;;;;;;;6.30;2.88;;;;;;;23.36;30.94;101849.94;20997730;28;20037;-82
2023/05/10 19:46:16;;;;;;;5.00;3.08;;;;;;;23.26;30.42;101834.81;20989346;28;20445;-83
2023/05/10 19:56:20;;;;;;;4.65;2.65;;;;;;;23.09;30.57;101795.13;20966289;28;20114;-83
2023/05/10 20:06:21;;;;;;;5.40;2.65;;;;;;;23.37;31.11;101802.19;20911582;28;20122;-80
2023/05/10 20:16:23;;;;;;;3.95;2.83;;;;;;;23.36;30.99;101777.31;20928513;28;20480;-83
2023/05/10 20:26:24;;;;;;;4.00;2.83;;;;;;;23.40;31.32;101787.66;20925725;28;20037;-82
2023/05/10 20:36:30;;;;;;;3.08;2.42;;;;;;;23.43;30.74;101806.66;20927259;28;20029;-81
2023/05/10 20:46:32;;;;;;;5.57;3.03;;;;;;;23.25;30.63;101777.31;20923831;28;20122;-82
2023/05/10 20:56:33;;;;;;;5.40;2.75;;;;;;;23.47;30.67;101795.78;20923287;28;20045;-82
2023/05/10 21:06:35;;;;;;;5.25;2.88;;;;;;;23.44;30.71;101813.91;20923203;28;20045;-82
2023/05/10 21:16:36;;;;;;;5.53;2.28;;;;;;;23.37;30.08;101784.56;20922293;28;20122;-83
2023/05/10 21:26:37;;;;;;;4.47;2.80;;;;;;;23.47;30.52;101793.81;20920421;28;20033;-82
2023/05/10 21:36:39;;;;;;;3.28;2.05;;;;;;;23.20;29.51;101768.91;20920056;28;20052;-83
2023/05/10 21:46:40;;;;;;;3.85;2.13;;;;;;;23.48;29.08;101803.03;20920604;28;20045;-82
2023/05/10 21:56:41;;;;;;;2.92;1.63;;;;;;;23.35;30.04;101782.06;20919120;28;20052;-81
2023/05/10 22:06:46;;;;;;;4.35;2.13;;;;;;;23.53;29.53;101817.00;20917756;28;20130;-81
2023/05/10 22:16:48;;;;;;;3.17;2.22;;;;;;;23.48;28.57;101814.22;20916855;28;20057;-81
2023/05/10 22:26:49;;;;;;;4.22;2.65;;;;;;;23.44;28.69;101790.72;20916047;28;20033;-81
2023/05/10 22:36:50;;;;;;;3.63;2.45;;;;;;;23.36;29.03;101772.56;20915348;28;20052;-81
2023/05/10 22:46:51;;;;;;;3.45;2.58;;;;;;;23.32;28.29;101766.72;20915530;28;20037;-82
2023/05/10 22:56:53;;;;;;;2.70;2.03;;;;;;;22.75;28.53;101666.38;20914991;28;20045;-81
2023/05/10 23:06:55;;;;;;;5.00;1.88;;;;;;;23.34;28.44;101750.50;20911876;28;20049;-84
2023/05/10 23:16:56;;;;;;;5.65;2.08;;;;;;;23.50;28.82;101790.47;20912326;28;20048;-81
2023/05/10 23:26:57;;;;;;;5.28;2.22;;;;;;;23.44;27.95;101785.97;20913022;28;20480;-82
2023/05/10 23:37:02;;;;;;;2.40;2.20;;;;;;;23.12;27.91;101733.16;20921581;28;20118;-81
2023/05/10 23:47:03;;;;;;;6.38;2.35;;;;;;;23.47;27.40;101781.81;20936520;28;20049;-77
2023/05/10 23:57:04;;;;;;;5.40;2.40;;;;;;;23.26;27.70;101773.38;21002573;28;20036;-73
